createdAt,value
2023-05-02T00:00:43.837Z,88364.00
2023-05-02T00:01:43.942Z,88364.00
2023-05-02T00:02:43.993Z,88364.00
2023-05-02T00:03:43.983Z,88364.00
2023-05-02T00:04:43.844Z,88366.00
2023-05-02T00:05:43.781Z,88360.00
2023-05-02T00:06:43.797Z,88362.00
2023-05-02T00:07:43.764Z,88362.00
2023-05-02T00:08:43.752Z,88360.00
2023-05-02T00:09:43.750Z,88362.00
2023-05-02T00:10:43.757Z,88362.00
2023-05-02T00:11:43.721Z,88360.00
2023-05-02T00:12:43.712Z,88360.00
2023-05-02T00:13:43.707Z,88360.00
2023-05-02T00:14:43.690Z,88360.00
2023-05-02T00:15:43.697Z,88360.00
2023-05-02T00:16:43.692Z,88358.00
2023-05-02T00:17:43.701Z,88358.00
2023-05-02T00:18:43.734Z,88358.00
2023-05-02T00:19:43.816Z,88358.00
2023-05-02T00:20:43.869Z,88360.00
2023-05-02T00:21:43.916Z,88358.00
2023-05-02T00:22:43.945Z,88358.00
2023-05-02T00:23:44.010Z,88360.00
2023-05-02T00:24:44.075Z,88362.00
2023-05-02T00:25:44.123Z,88364.00
2023-05-02T00:26:44.202Z,88360.00
2023-05-02T00:27:44.231Z,88358.00
2023-05-02T00:28:44.263Z,88358.00
2023-05-02T00:29:44.306Z,88358.00
2023-05-02T00:30:44.407Z,88360.00
2023-05-02T00:31:44.489Z,88360.00
2023-05-02T00:32:44.526Z,88358.00
2023-05-02T00:33:44.509Z,88360.00
2023-05-02T00:34:44.572Z,88358.00
2023-05-02T00:35:44.611Z,88362.00
2023-05-02T00:36:44.657Z,88356.00
2023-05-02T00:37:44.709Z,88356.00
2023-05-02T00:38:44.773Z,88356.00
2023-05-02T00:39:44.823Z,88356.00
2023-05-02T00:40:44.861Z,88354.00
2023-05-02T00:41:44.925Z,88356.00
2023-05-02T00:42:44.967Z,88356.00
2023-05-02T00:43:44.971Z,88353.00
2023-05-02T00:44:44.959Z,88354.00
2023-05-02T00:45:44.947Z,88351.00
2023-05-02T00:46:45.029Z,88354.00
2023-05-02T00:47:44.957Z,88351.00
2023-05-02T00:48:44.943Z,88353.00
2023-05-02T00:49:44.920Z,88353.00
2023-05-02T00:50:44.916Z,88354.00
2023-05-02T00:51:44.907Z,88353.00
2023-05-02T00:52:44.953Z,88353.00
2023-05-02T00:53:44.984Z,88354.00
2023-05-02T00:54:45.049Z,88351.00
2023-05-02T00:55:45.088Z,88354.00
2023-05-02T00:56:45.130Z,88354.00
2023-05-02T00:57:45.191Z,88356.00
2023-05-02T00:58:45.267Z,88354.00
2023-05-02T00:59:45.336Z,88354.00
2023-05-02T01:00:45.377Z,88354.00
2023-05-02T01:01:45.562Z,88354.00
2023-05-02T01:02:45.518Z,88358.00
2023-05-02T01:03:45.619Z,88356.00
2023-05-02T01:04:45.582Z,88356.00
2023-05-02T01:05:45.611Z,88356.00
2023-05-02T01:06:45.751Z,88358.00
2023-05-02T01:07:45.720Z,88358.00
2023-05-02T01:08:45.756Z,88358.00
2023-05-02T01:09:45.784Z,88362.00
2023-05-02T01:10:45.843Z,88362.00
2023-05-02T01:11:45.911Z,88362.00
2023-05-02T01:12:45.945Z,88364.00
2023-05-02T01:13:46.037Z,88362.00
2023-05-02T01:14:46.107Z,88360.00
2023-05-02T01:15:46.161Z,88360.00
2023-05-02T01:16:46.218Z,88362.00
2023-05-02T01:17:46.289Z,88360.00
2023-05-02T01:18:46.252Z,88362.00
2023-05-02T01:19:46.286Z,88360.00
2023-05-02T01:20:46.324Z,88360.00
2023-05-02T01:21:46.363Z,88358.00
2023-05-02T01:22:46.423Z,88356.00
2023-05-02T01:23:46.466Z,88358.00
2023-05-02T01:24:46.467Z,88362.00
2023-05-02T01:25:46.497Z,88362.00
2023-05-02T01:26:46.530Z,88360.00
2023-05-02T01:27:46.564Z,88362.00
2023-05-02T01:28:46.602Z,88362.00
2023-05-02T01:29:46.631Z,88362.00
2023-05-02T01:30:46.675Z,88364.00
2023-05-02T01:31:46.759Z,88364.00
2023-05-02T01:32:46.822Z,88364.00
2023-05-02T01:33:46.830Z,88364.00
2023-05-02T01:34:46.875Z,88364.00
2023-05-02T01:35:46.924Z,88362.00
2023-05-02T01:36:46.989Z,88364.00
2023-05-02T01:37:47.025Z,88364.00
2023-05-02T01:38:47.082Z,88364.00
2023-05-02T01:39:47.169Z,88368.00
2023-05-02T01:40:47.204Z,88370.00
2023-05-02T01:41:47.242Z,88366.00
2023-05-02T01:42:47.283Z,88366.00
2023-05-02T01:43:47.351Z,88362.00
2023-05-02T01:44:47.322Z,88366.00
2023-05-02T01:45:47.367Z,88364.00
2023-05-02T01:46:47.406Z,88364.00
2023-05-02T01:47:47.336Z,88362.00
2023-05-02T01:48:47.300Z,88364.00
2023-05-02T01:49:47.298Z,88364.00
2023-05-02T01:50:47.287Z,88364.00
2023-05-02T01:51:47.294Z,88364.00
2023-05-02T01:52:47.304Z,88364.00
2023-05-02T01:53:47.365Z,88364.00
2023-05-02T01:54:47.408Z,88364.00
2023-05-02T01:55:47.438Z,88364.00
2023-05-02T01:56:47.506Z,88366.00
2023-05-02T01:57:47.557Z,88364.00
2023-05-02T01:58:47.603Z,88364.00
2023-05-02T01:59:47.626Z,88364.00
2023-05-02T02:00:47.726Z,88364.00
2023-05-02T02:01:47.727Z,88366.00
2023-05-02T02:02:47.872Z,88366.00
2023-05-02T02:03:47.836Z,88364.00
2023-05-02T02:04:47.977Z,88366.00
2023-05-02T02:05:47.925Z,88364.00
2023-05-02T02:06:48.034Z,88366.00
2023-05-02T02:07:48.049Z,88368.00
2023-05-02T02:08:48.110Z,88366.00
2023-05-02T02:09:48.214Z,88368.00
2023-05-02T02:10:48.263Z,88370.00
2023-05-02T02:11:48.300Z,88372.00
2023-05-02T02:12:48.345Z,88368.00
2023-05-02T02:13:48.415Z,88370.00
2023-05-02T02:14:48.471Z,88368.00
2023-05-02T02:15:48.526Z,88370.00
2023-05-02T02:16:48.640Z,88370.00
2023-05-02T02:17:48.676Z,88366.00
2023-05-02T02:18:48.732Z,88366.00
2023-05-02T02:19:48.773Z,88370.00
2023-05-02T02:20:48.851Z,88370.00
2023-05-02T02:21:49.164Z,88370.00
2023-05-02T02:22:48.987Z,88370.00
2023-05-02T02:23:49.027Z,88370.00
2023-05-02T02:24:49.084Z,88372.00
2023-05-02T02:25:49.158Z,88372.00
2023-05-02T02:26:49.216Z,88372.00
2023-05-02T02:27:49.300Z,88372.00
2023-05-02T02:28:49.334Z,88372.00
2023-05-02T02:29:49.407Z,88370.00
2023-05-02T02:30:49.529Z,88372.00
2023-05-02T02:31:49.523Z,88372.00
2023-05-02T02:32:49.621Z,88372.00
2023-05-02T02:33:49.664Z,88372.00
2023-05-02T02:34:49.720Z,88372.00
2023-05-02T02:35:49.714Z,88362.00
2023-05-02T02:36:49.796Z,88364.00
2023-05-02T02:37:49.714Z,88364.00
2023-05-02T02:38:49.679Z,88360.00
2023-05-02T02:39:49.688Z,88362.00
2023-05-02T02:40:49.693Z,88366.00
2023-05-02T02:41:49.772Z,88360.00
2023-05-02T02:42:49.634Z,88364.00
2023-05-02T02:43:49.666Z,88364.00
2023-05-02T02:44:49.605Z,88364.00
2023-05-02T02:45:49.660Z,88364.00
2023-05-02T02:46:49.645Z,88364.00
2023-05-02T02:47:49.643Z,88370.00
2023-05-02T02:48:49.572Z,88362.00
2023-05-02T02:49:49.589Z,88368.00
2023-05-02T02:50:49.616Z,88368.00
2023-05-02T02:51:49.657Z,88366.00
2023-05-02T02:52:49.703Z,88366.00
2023-05-02T02:53:49.721Z,88366.00
2023-05-02T02:54:49.717Z,88366.00
2023-05-02T02:55:49.726Z,88368.00
2023-05-02T02:56:49.725Z,88366.00
2023-05-02T02:57:49.734Z,88368.00
2023-05-02T02:58:49.727Z,88368.00
2023-05-02T02:59:49.728Z,88370.00
2023-05-02T03:00:49.792Z,88368.00
2023-05-02T03:01:49.831Z,88370.00
2023-05-02T03:02:49.779Z,88370.00
2023-05-02T03:03:49.876Z,88372.00
2023-05-02T03:04:49.767Z,88370.00
2023-05-02T03:05:49.779Z,88368.00
2023-05-02T03:06:49.887Z,88372.00
2023-05-02T03:07:49.777Z,88370.00
2023-05-02T03:08:49.784Z,88370.00
2023-05-02T03:09:49.847Z,88370.00
2023-05-02T03:10:49.804Z,88374.00
2023-05-02T03:11:49.829Z,88372.00
2023-05-02T03:12:49.823Z,88372.00
2023-05-02T03:13:49.822Z,88374.00
2023-05-02T03:14:49.824Z,88374.00
2023-05-02T03:15:49.854Z,88376.00
2023-05-02T03:16:49.854Z,88376.00
2023-05-02T03:17:49.886Z,88376.00
2023-05-02T03:18:49.856Z,88378.00
2023-05-02T03:19:49.861Z,88378.00
2023-05-02T03:20:49.865Z,88378.00
2023-05-02T03:21:49.902Z,88378.00
2023-05-02T03:22:49.906Z,88378.00
2023-05-02T03:23:49.919Z,88376.00
2023-05-02T03:24:49.933Z,88380.00
2023-05-02T03:25:49.941Z,88378.00
2023-05-02T03:26:49.953Z,88378.00
2023-05-02T03:27:49.975Z,88378.00
2023-05-02T03:28:49.978Z,88378.00
2023-05-02T03:29:49.990Z,88380.00
2023-05-02T03:30:49.971Z,88378.00
2023-05-02T03:31:50.032Z,88380.00
2023-05-02T03:32:50.002Z,88380.00
2023-05-02T03:33:49.979Z,88380.00
2023-05-02T03:34:49.992Z,88378.00
2023-05-02T03:35:49.994Z,88380.00
2023-05-02T03:36:49.993Z,88378.00
2023-05-02T03:37:49.993Z,88380.00
2023-05-02T03:38:50.000Z,88380.00
2023-05-02T03:39:49.973Z,88380.00
2023-05-02T03:40:49.999Z,88378.00
2023-05-02T03:41:49.976Z,88378.00
2023-05-02T03:42:49.991Z,88382.00
2023-05-02T03:43:49.969Z,88382.00
2023-05-02T03:44:49.963Z,88382.00
2023-05-02T03:45:49.984Z,88382.00
2023-05-02T03:46:50.016Z,88382.00
2023-05-02T03:47:50.062Z,88382.00
2023-05-02T03:48:49.947Z,88382.00
2023-05-02T03:49:49.970Z,88384.00
2023-05-02T03:50:49.948Z,88386.00
2023-05-02T03:51:49.941Z,88390.00
2023-05-02T03:52:49.952Z,88390.00
2023-05-02T03:53:49.988Z,88392.00
2023-05-02T03:54:49.991Z,88392.00
2023-05-02T03:55:50.028Z,88394.00
2023-05-02T03:56:50.077Z,88398.00
2023-05-02T03:57:50.094Z,88396.00
2023-05-02T03:58:50.115Z,88396.00
2023-05-02T03:59:50.129Z,88398.00
2023-05-02T04:00:50.147Z,88401.00
2023-05-02T04:01:50.326Z,88401.00
2023-05-02T04:02:50.451Z,88400.00
2023-05-02T04:03:50.255Z,88400.00
2023-05-02T04:04:50.276Z,88401.00
2023-05-02T04:05:50.293Z,88400.00
2023-05-02T04:06:50.439Z,88401.00
2023-05-02T04:07:50.356Z,88400.00
2023-05-02T04:08:50.399Z,88398.00
2023-05-02T04:09:50.423Z,88401.00
2023-05-02T04:10:50.432Z,88400.00
2023-05-02T04:11:50.466Z,88400.00
2023-05-02T04:12:50.489Z,88401.00
2023-05-02T04:13:52.045Z,88401.00
2023-05-02T04:14:50.527Z,88405.00
2023-05-02T04:15:50.527Z,88403.00
2023-05-02T04:16:50.589Z,88405.00
2023-05-02T04:17:50.590Z,88407.00
2023-05-02T04:18:50.516Z,88407.00
2023-05-02T04:19:50.516Z,88411.00
2023-05-02T04:20:50.516Z,88409.00
2023-05-02T04:21:50.545Z,88409.00
2023-05-02T04:22:50.526Z,88409.00
2023-05-02T04:23:50.518Z,88409.00
2023-05-02T04:24:50.524Z,88409.00
2023-05-02T04:25:50.508Z,88409.00
2023-05-02T04:26:50.560Z,88411.00
2023-05-02T04:27:50.534Z,88415.00
2023-05-02T04:28:50.517Z,88413.00
2023-05-02T04:29:50.631Z,88415.00
2023-05-02T04:30:50.532Z,88417.00
2023-05-02T04:31:50.488Z,88415.00
2023-05-02T04:32:50.539Z,88413.00
2023-05-02T04:33:50.494Z,88415.00
2023-05-02T04:34:50.488Z,88421.00
2023-05-02T04:35:50.491Z,88421.00
2023-05-02T04:36:50.501Z,88423.00
2023-05-02T04:37:50.493Z,88423.00
2023-05-02T04:38:50.498Z,88421.00
2023-05-02T04:39:50.502Z,88423.00
2023-05-02T04:40:50.508Z,88427.00
2023-05-02T04:41:50.528Z,88427.00
2023-05-02T04:42:50.515Z,88429.00
2023-05-02T04:43:50.563Z,88431.00
2023-05-02T04:44:50.556Z,88431.00
2023-05-02T04:45:50.626Z,88435.00
2023-05-02T04:46:50.681Z,88433.00
2023-05-02T04:47:50.568Z,88437.00
2023-05-02T04:48:50.549Z,88437.00
2023-05-02T04:49:50.547Z,88435.00
2023-05-02T04:50:50.556Z,88437.00
2023-05-02T04:51:50.581Z,88439.00
2023-05-02T04:52:50.567Z,88437.00
2023-05-02T04:53:50.553Z,88441.00
2023-05-02T04:54:50.548Z,88441.00
2023-05-02T04:55:50.549Z,88441.00
2023-05-02T04:56:50.559Z,88443.00
2023-05-02T04:57:50.605Z,88443.00
2023-05-02T04:58:50.561Z,88445.00
2023-05-02T04:59:50.592Z,88447.00
2023-05-02T05:00:50.612Z,88449.00
2023-05-02T05:01:50.743Z,88451.00
2023-05-02T05:02:50.735Z,88449.00
2023-05-02T05:03:50.872Z,88451.00
2023-05-02T05:04:50.745Z,88455.00
2023-05-02T05:05:50.771Z,88451.00
2023-05-02T05:06:50.913Z,88453.00
2023-05-02T05:07:50.878Z,88453.00
2023-05-02T05:08:50.910Z,88449.00
2023-05-02T05:09:53.194Z,88451.00
2023-05-02T05:10:51.020Z,88455.00
2023-05-02T05:11:51.067Z,88456.00
2023-05-02T05:12:51.140Z,88456.00
2023-05-02T05:13:51.164Z,88458.00
2023-05-02T05:14:51.198Z,88458.00
2023-05-02T05:15:51.271Z,88458.00
2023-05-02T05:16:51.318Z,88460.00
2023-05-02T05:17:51.314Z,88466.00
2023-05-02T05:18:51.343Z,88464.00
2023-05-02T05:19:51.348Z,88464.00
2023-05-02T05:20:51.361Z,88468.00
2023-05-02T05:21:51.381Z,88470.00
2023-05-02T05:22:51.374Z,88470.00
2023-05-02T05:23:51.379Z,88477.00
2023-05-02T05:24:51.353Z,88477.00
2023-05-02T05:25:51.352Z,88479.00
2023-05-02T05:26:51.358Z,88479.00
2023-05-02T05:27:51.402Z,88468.00
2023-05-02T05:28:51.369Z,88481.00
2023-05-02T05:29:51.366Z,88479.00
2023-05-02T05:30:51.371Z,88479.00
2023-05-02T05:31:51.664Z,88481.00
2023-05-02T05:32:51.454Z,88483.00
2023-05-02T05:33:51.406Z,88485.00
2023-05-02T05:34:51.367Z,88485.00
2023-05-02T05:35:51.366Z,88487.00
2023-05-02T05:36:51.481Z,88485.00
2023-05-02T05:37:51.444Z,88485.00
2023-05-02T05:38:51.570Z,88485.00
2023-05-02T05:39:51.547Z,88485.00
2023-05-02T05:40:51.596Z,88489.00
2023-05-02T05:41:51.632Z,88489.00
2023-05-02T05:42:51.696Z,88491.00
2023-05-02T05:43:51.739Z,88489.00
2023-05-02T05:44:51.832Z,88487.00
2023-05-02T05:45:51.840Z,88493.00
2023-05-02T05:46:51.956Z,88489.00
2023-05-02T05:47:52.024Z,88495.00
2023-05-02T05:48:51.971Z,88493.00
2023-05-02T05:49:51.988Z,88491.00
2023-05-02T05:50:52.183Z,88491.00
2023-05-02T05:51:52.120Z,88491.00
2023-05-02T05:52:52.126Z,88497.00
2023-05-02T05:53:52.151Z,88493.00
2023-05-02T05:54:52.196Z,88493.00
2023-05-02T05:55:52.372Z,88493.00
2023-05-02T05:56:52.295Z,88497.00
2023-05-02T05:57:52.327Z,88497.00
2023-05-02T05:58:52.382Z,88499.00
2023-05-02T05:59:52.423Z,88499.00
2023-05-02T06:00:52.511Z,88501.00
2023-05-02T06:01:52.610Z,88499.00
2023-05-02T06:02:52.791Z,88503.00
2023-05-02T06:03:52.811Z,88507.00
2023-05-02T06:04:52.914Z,88501.00
2023-05-02T06:05:52.970Z,88503.00
2023-05-02T06:06:53.087Z,88505.00
2023-05-02T06:07:53.168Z,88503.00
2023-05-02T06:08:53.199Z,88505.00
2023-05-02T06:09:53.217Z,88505.00
2023-05-02T06:10:53.287Z,88507.00
2023-05-02T06:11:53.267Z,88507.00
2023-05-02T06:12:53.353Z,88515.00
2023-05-02T06:13:53.405Z,88513.00
2023-05-02T06:14:53.393Z,88511.00
2023-05-02T06:15:53.462Z,88515.00
2023-05-02T06:16:53.429Z,88513.00
2023-05-02T06:17:53.512Z,88516.00
2023-05-02T06:18:53.537Z,88518.00
2023-05-02T06:19:53.626Z,88520.00
2023-05-02T06:20:53.624Z,88522.00
2023-05-02T06:21:54.276Z,88520.00
2023-05-02T06:22:53.647Z,88518.00
2023-05-02T06:23:53.678Z,88520.00
2023-05-02T06:24:54.263Z,88518.00
2023-05-02T06:25:54.322Z,88524.00
2023-05-02T06:26:53.766Z,88522.00
2023-05-02T06:27:53.961Z,88526.00
2023-05-02T06:28:53.827Z,88522.00
2023-05-02T06:29:53.929Z,88526.00
2023-05-02T06:30:53.896Z,88530.00
2023-05-02T06:31:54.077Z,88528.00
2023-05-02T06:32:54.123Z,88532.00
2023-05-02T06:33:54.071Z,88528.00
2023-05-02T06:34:54.092Z,88528.00
2023-05-02T06:35:54.110Z,88526.00
2023-05-02T06:36:54.136Z,88530.00
2023-05-02T06:37:54.263Z,88538.00
2023-05-02T06:38:54.437Z,88536.00
2023-05-02T06:39:54.216Z,88536.00
2023-05-02T06:40:54.255Z,88542.00
2023-05-02T06:41:54.318Z,88544.00
2023-05-02T06:42:54.360Z,88542.00
2023-05-02T06:43:54.316Z,88546.00
2023-05-02T06:44:54.369Z,88548.00
2023-05-02T06:45:54.353Z,88546.00
2023-05-02T06:46:54.433Z,88546.00
2023-05-02T06:47:54.642Z,88546.00
2023-05-02T06:48:54.462Z,88546.00
2023-05-02T06:49:54.482Z,88546.00
2023-05-02T06:50:54.549Z,88544.00
2023-05-02T06:51:54.461Z,88546.00
2023-05-02T06:52:54.502Z,88550.00
2023-05-02T06:53:54.493Z,88548.00
2023-05-02T06:54:54.568Z,88548.00
2023-05-02T06:55:54.524Z,88548.00
2023-05-02T06:56:54.569Z,88554.00
2023-05-02T06:57:54.520Z,88554.00
2023-05-02T06:58:54.531Z,88552.00
2023-05-02T06:59:54.561Z,88552.00
2023-05-02T07:00:54.563Z,88554.00
2023-05-02T07:01:54.546Z,88556.00
2023-05-02T07:02:54.610Z,88558.00
2023-05-02T07:03:54.597Z,88556.00
2023-05-02T07:04:54.596Z,88560.00
2023-05-02T07:05:54.570Z,88556.00
2023-05-02T07:06:54.589Z,88558.00
2023-05-02T07:07:54.604Z,88560.00
2023-05-02T07:08:54.575Z,88560.00
2023-05-02T07:09:54.666Z,88562.00
2023-05-02T07:10:54.712Z,88564.00
2023-05-02T07:11:54.909Z,88560.00
2023-05-02T07:12:54.850Z,88558.00
2023-05-02T07:13:54.928Z,88558.00
2023-05-02T07:14:54.951Z,88560.00
2023-05-02T07:15:55.072Z,88560.00
2023-05-02T07:16:55.185Z,88558.00
2023-05-02T07:17:55.199Z,88558.00
2023-05-02T07:18:55.188Z,88560.00
2023-05-02T07:19:55.203Z,88566.00
2023-05-02T07:20:55.160Z,88566.00
2023-05-02T07:21:55.243Z,88564.00
2023-05-02T07:22:55.179Z,88564.00
2023-05-02T07:23:55.197Z,88568.00
2023-05-02T07:24:55.172Z,88568.00
2023-05-02T07:25:55.265Z,88566.00
2023-05-02T07:26:55.216Z,88566.00
2023-05-02T07:27:58.901Z,88566.00
2023-05-02T07:28:55.219Z,88566.00
2023-05-02T07:29:55.251Z,88566.00
2023-05-02T07:30:55.209Z,88566.00
2023-05-02T07:31:55.240Z,88568.00
2023-05-02T07:32:55.332Z,88564.00
2023-05-02T07:33:55.198Z,88566.00
2023-05-02T07:34:55.216Z,88568.00
2023-05-02T07:35:55.226Z,88568.00
2023-05-02T07:36:55.186Z,88570.00
2023-05-02T07:37:55.224Z,88570.00
2023-05-02T07:38:55.252Z,88570.00
2023-05-02T07:39:55.213Z,88573.00
2023-05-02T07:40:55.230Z,88571.00
2023-05-02T07:41:55.206Z,88571.00
2023-05-02T07:42:55.292Z,88571.00
2023-05-02T07:43:55.234Z,88568.00
2023-05-02T07:44:55.254Z,88575.00
2023-05-02T07:45:55.337Z,88571.00
2023-05-02T07:46:55.307Z,88575.00
2023-05-02T07:47:55.314Z,88573.00
2023-05-02T07:48:55.260Z,88575.00
2023-05-02T07:49:55.223Z,88577.00
2023-05-02T07:50:55.207Z,88575.00
2023-05-02T07:51:55.222Z,88575.00
2023-05-02T07:52:55.233Z,88579.00
2023-05-02T07:53:55.215Z,88577.00
2023-05-02T07:54:55.283Z,88579.00
2023-05-02T07:55:55.208Z,88579.00
2023-05-02T07:56:55.198Z,88579.00
2023-05-02T07:57:55.250Z,88579.00
2023-05-02T07:58:55.213Z,88581.00
2023-05-02T07:59:55.209Z,88579.00
2023-05-02T08:00:55.217Z,88581.00
2023-05-02T08:01:55.203Z,88583.00
2023-05-02T08:02:55.347Z,88583.00
2023-05-02T08:03:55.322Z,88585.00
2023-05-02T08:04:55.239Z,88583.00
2023-05-02T08:05:55.295Z,88585.00
2023-05-02T08:06:55.361Z,88583.00
2023-05-02T08:07:55.229Z,88587.00
2023-05-02T08:08:55.184Z,88583.00
2023-05-02T08:09:55.158Z,88585.00
2023-05-02T08:10:55.161Z,88587.00
2023-05-02T08:11:55.146Z,88589.00
2023-05-02T08:12:55.176Z,88589.00
2023-05-02T08:13:55.161Z,88585.00
2023-05-02T08:14:55.154Z,88591.00
2023-05-02T08:15:55.195Z,88591.00
2023-05-02T08:16:55.133Z,88591.00
2023-05-02T08:17:55.222Z,88593.00
2023-05-02T08:18:55.117Z,88595.00
2023-05-02T08:19:55.113Z,88595.00
2023-05-02T08:20:55.118Z,88599.00
2023-05-02T08:21:55.127Z,88597.00
2023-05-02T08:22:55.185Z,88595.00
2023-05-02T08:23:55.214Z,88595.00
2023-05-02T08:24:55.119Z,88595.00
2023-05-02T08:25:55.156Z,88597.00
2023-05-02T08:26:55.143Z,88599.00
2023-05-02T08:27:55.123Z,88597.00
2023-05-02T08:28:55.086Z,88597.00
2023-05-02T08:29:55.093Z,88593.00
2023-05-02T08:30:56.117Z,88599.00
2023-05-02T08:31:55.112Z,88597.00
2023-05-02T08:32:55.110Z,88595.00
2023-05-02T08:33:55.122Z,88599.00
2023-05-02T08:34:55.048Z,88595.00
2023-05-02T08:35:55.061Z,88597.00
2023-05-02T08:36:56.207Z,88595.00
2023-05-02T08:37:55.050Z,88601.00
2023-05-02T08:38:55.043Z,88599.00
2023-05-02T08:39:55.040Z,88599.00
2023-05-02T08:40:55.018Z,88599.00
2023-05-02T08:41:55.067Z,88599.00
2023-05-02T08:42:55.051Z,88599.00
2023-05-02T08:43:55.013Z,88601.00
2023-05-02T08:44:55.018Z,88607.00
2023-05-02T08:45:54.995Z,88609.00
2023-05-02T08:46:55.024Z,88605.00
2023-05-02T08:47:55.415Z,88607.00
2023-05-02T08:48:55.026Z,88605.00
2023-05-02T08:49:55.021Z,88609.00
2023-05-02T08:50:54.975Z,88609.00
2023-05-02T08:51:54.960Z,88609.00
2023-05-02T08:52:54.983Z,88613.00
2023-05-02T08:53:54.995Z,88613.00
2023-05-02T08:54:55.033Z,88613.00
2023-05-02T08:55:55.062Z,88611.00
2023-05-02T08:56:55.813Z,88611.00
2023-05-02T08:57:55.008Z,88613.00
2023-05-02T09:01:33.389Z,88613.00
2023-05-02T09:02:33.356Z,88615.00
2023-05-02T09:03:33.328Z,88617.00
2023-05-02T09:04:33.351Z,88615.00
2023-05-02T09:05:33.323Z,88621.00
2023-05-02T09:06:33.331Z,88619.00
2023-05-02T09:07:33.352Z,88619.00
2023-05-02T09:09:52.473Z,88619.00
2023-05-02T09:10:52.466Z,88622.00
2023-05-02T09:11:52.473Z,88621.00
2023-05-02T09:12:52.470Z,88621.00
2023-05-02T09:13:52.525Z,88619.00
2023-05-02T09:14:52.482Z,88619.00
2023-05-02T09:15:52.483Z,88624.00
2023-05-02T09:16:52.732Z,88622.00
2023-05-02T09:19:11.650Z,88622.00
2023-05-02T09:20:11.668Z,88621.00
2023-05-02T09:21:12.668Z,88621.00
2023-05-02T09:22:11.649Z,88622.00
2023-05-02T09:23:11.700Z,88624.00
2023-05-02T09:24:11.681Z,88626.00
2023-05-02T09:25:11.742Z,88624.00
2023-05-02T09:26:11.729Z,88626.00
2023-05-02T09:27:11.725Z,88626.00
2023-05-02T09:28:11.833Z,88622.00
2023-05-02T09:29:11.738Z,88626.00
2023-05-02T09:30:11.759Z,88626.00
2023-05-02T09:31:11.823Z,88630.00
2023-05-02T09:32:11.828Z,88630.00
2023-05-02T09:33:11.909Z,88630.00
2023-05-02T09:34:11.827Z,88632.00
2023-05-02T09:35:11.807Z,88634.00
2023-05-02T09:36:11.826Z,88630.00
2023-05-02T09:37:11.824Z,88632.00
2023-05-02T09:38:11.910Z,88636.00
2023-05-02T09:39:14.812Z,88636.00
2023-05-02T09:40:11.856Z,88640.00
2023-05-02T09:41:11.874Z,88638.00
2023-05-02T09:42:11.890Z,88638.00
2023-05-02T09:43:11.890Z,88640.00
2023-05-02T09:44:11.933Z,88638.00
2023-05-02T09:45:11.915Z,88642.00
2023-05-02T09:46:12.051Z,88640.00
2023-05-02T09:47:11.925Z,88640.00
2023-05-02T09:48:11.985Z,88638.00
2023-05-02T09:49:11.958Z,88640.00
2023-05-02T09:50:11.977Z,88642.00
2023-05-02T09:51:11.966Z,88644.00
2023-05-02T09:52:12.008Z,88642.00
2023-05-02T09:53:12.022Z,88638.00
2023-05-02T09:54:12.012Z,88644.00
2023-05-02T09:55:12.012Z,88642.00
2023-05-02T09:56:12.040Z,88642.00
2023-05-02T09:57:12.058Z,88644.00
2023-05-02T09:58:12.087Z,88646.00
2023-05-02T09:59:12.169Z,88644.00
2023-05-02T10:00:12.845Z,88646.00
2023-05-02T10:01:12.122Z,88648.00
2023-05-02T10:02:14.972Z,88650.00
2023-05-02T10:03:12.170Z,88648.00
2023-05-02T10:04:12.137Z,88646.00
2023-05-02T10:05:12.937Z,88646.00
2023-05-02T10:06:12.133Z,88646.00
2023-05-02T10:07:12.140Z,88650.00
2023-05-02T10:08:12.185Z,88650.00
2023-05-02T10:09:13.772Z,88648.00
2023-05-02T10:10:12.169Z,88650.00
2023-05-02T10:11:12.182Z,88652.00
2023-05-02T10:12:12.190Z,88650.00
2023-05-02T10:13:12.476Z,88648.00
2023-05-02T10:14:12.841Z,88652.00
2023-05-02T10:15:12.183Z,88652.00
2023-05-02T10:16:12.207Z,88648.00
2023-05-02T10:17:12.180Z,88652.00
2023-05-02T10:18:12.254Z,88652.00
2023-05-02T10:19:12.174Z,88648.00
2023-05-02T10:20:12.194Z,88652.00
2023-05-02T10:21:12.223Z,88648.00
2023-05-02T10:22:12.185Z,88650.00
2023-05-02T10:23:12.196Z,88650.00
2023-05-02T10:24:12.272Z,88650.00
2023-05-02T10:25:12.231Z,88648.00
2023-05-02T10:26:12.192Z,88650.00
2023-05-02T10:27:12.294Z,88648.00
2023-05-02T10:28:12.236Z,88648.00
2023-05-02T10:29:12.216Z,88646.00
2023-05-02T10:30:12.221Z,88648.00
2023-05-02T10:31:12.344Z,88648.00
2023-05-02T10:32:12.229Z,88648.00
2023-05-02T10:33:12.291Z,88646.00
2023-05-02T10:34:12.241Z,88648.00
2023-05-02T10:35:12.248Z,88648.00
2023-05-02T10:36:12.261Z,88648.00
2023-05-02T10:37:12.247Z,88650.00
2023-05-02T10:38:12.328Z,88648.00
2023-05-02T10:39:12.279Z,88646.00
2023-05-02T10:40:12.276Z,88644.00
2023-05-02T10:41:12.351Z,88646.00
2023-05-02T10:42:12.329Z,88646.00
2023-05-02T10:43:12.286Z,88646.00
2023-05-02T10:44:12.280Z,88642.00
2023-05-02T10:45:12.294Z,88640.00
2023-05-02T10:46:12.315Z,88642.00
2023-05-02T10:47:12.341Z,88640.00
2023-05-02T10:48:12.492Z,88640.00
2023-05-02T10:49:12.305Z,88638.00
2023-05-02T10:50:12.331Z,88636.00
2023-05-02T10:51:12.308Z,88638.00
2023-05-02T10:52:12.307Z,88640.00
2023-05-02T10:53:12.424Z,88638.00
2023-05-02T10:54:12.304Z,88636.00
2023-05-02T10:55:12.306Z,88636.00
2023-05-02T10:56:12.341Z,88632.00
2023-05-02T10:57:12.361Z,88634.00
2023-05-02T10:58:12.313Z,88636.00
2023-05-02T10:59:12.316Z,88634.00
2023-05-02T11:00:12.313Z,88634.00
2023-05-02T11:01:12.382Z,88632.00
2023-05-02T11:02:12.383Z,88634.00
2023-05-02T11:03:12.444Z,88632.00
2023-05-02T11:04:12.319Z,88630.00
2023-05-02T11:05:12.365Z,88626.00
2023-05-02T11:06:12.393Z,88630.00
2023-05-02T11:07:12.351Z,88628.00
2023-05-02T11:08:12.357Z,88628.00
2023-05-02T11:09:12.377Z,88628.00
2023-05-02T11:10:12.343Z,88628.00
2023-05-02T11:11:13.318Z,88628.00
2023-05-02T11:12:12.366Z,88632.00
2023-05-02T11:13:12.413Z,88626.00
2023-05-02T11:14:13.111Z,88628.00
2023-05-02T11:15:12.404Z,88628.00
2023-05-02T11:16:12.374Z,88630.00
2023-05-02T11:17:12.391Z,88630.00
2023-05-02T11:18:12.774Z,88630.00
2023-05-02T11:19:12.370Z,88632.00
2023-05-02T11:20:12.394Z,88628.00
2023-05-02T11:21:12.384Z,88628.00
2023-05-02T11:22:12.372Z,88626.00
2023-05-02T11:23:12.381Z,88628.00
2023-05-02T11:24:12.383Z,88628.00
2023-05-02T11:25:12.355Z,88624.00
2023-05-02T11:26:12.421Z,88630.00
2023-05-02T11:27:13.286Z,88624.00
2023-05-02T11:28:12.973Z,88626.00
2023-05-02T11:29:12.393Z,88628.00
2023-05-02T11:30:13.500Z,88626.00
2023-05-02T11:31:12.386Z,88628.00
2023-05-02T11:32:12.429Z,88628.00
2023-05-02T11:33:12.990Z,88626.00
2023-05-02T11:34:12.446Z,88626.00
2023-05-02T11:35:12.457Z,88624.00
2023-05-02T11:36:12.402Z,88630.00
2023-05-02T11:37:12.446Z,88624.00
2023-05-02T11:38:12.422Z,88628.00
2023-05-02T11:39:12.417Z,88630.00
2023-05-02T11:40:12.501Z,88628.00
2023-05-02T11:41:12.412Z,88630.00
2023-05-02T11:42:12.396Z,88630.00
2023-05-02T11:43:12.408Z,88632.00
2023-05-02T11:44:12.377Z,88630.00
2023-05-02T11:45:12.403Z,88632.00
2023-05-02T11:46:12.388Z,88634.00
2023-05-02T11:47:12.420Z,88634.00
2023-05-02T11:48:12.472Z,88636.00
2023-05-02T11:49:12.712Z,88636.00
2023-05-02T11:50:12.449Z,88636.00